createdAt,value
2022-08-07T00:00:58.237Z,80.50
2022-08-07T00:05:57.537Z,81.60
2022-08-07T00:10:59.223Z,82.90
2022-08-07T00:15:57.610Z,83.60
2022-08-07T00:21:01.486Z,83.00
2022-08-07T00:26:13.202Z,84.50
2022-08-07T00:31:20.965Z,86.60
2022-08-07T00:36:19.017Z,86.10
2022-08-07T00:41:27.364Z,88.20
2022-08-07T00:46:27.220Z,88.50
2022-08-07T00:51:27.875Z,89.40
2022-08-07T00:56:44.684Z,90.00
2022-08-07T01:01:48.473Z,90.90
2022-08-07T01:06:47.345Z,90.50
2022-08-07T01:12:23.438Z,90.50
2022-08-07T01:17:07.205Z,91.50
2022-08-07T01:22:08.888Z,91.30
2022-08-07T01:27:19.381Z,92.50
2022-08-07T01:32:18.780Z,92.60
2022-08-07T01:37:20.298Z,92.50
2022-08-07T01:42:40.020Z,93.10
2022-08-07T01:48:19.571Z,93.90
2022-08-07T01:53:08.615Z,94.80
2022-08-07T01:58:27.195Z,95.30
2022-08-07T02:03:42.802Z,95.20
2022-08-07T02:08:50.508Z,95.90
2022-08-07T02:14:02.456Z,96.40
2022-08-07T02:19:05.651Z,97.80
2022-08-07T02:24:25.804Z,98.50
2022-08-07T02:29:30.660Z,99.10
2022-08-07T02:34:30.607Z,99.90
2022-08-07T02:39:43.737Z,99.90
2022-08-07T02:44:55.225Z,99.90
2022-08-07T02:49:59.797Z,99.90
2022-08-07T02:55:27.544Z,99.90
2022-08-07T03:00:27.254Z,99.90
2022-08-07T03:05:36.011Z,99.90
2022-08-07T03:10:40.747Z,99.90
2022-08-07T03:15:55.489Z,99.90
2022-08-07T03:20:56.390Z,99.90
2022-08-07T03:25:59.882Z,99.90
2022-08-07T03:31:14.971Z,99.90
2022-08-07T03:36:15.602Z,99.90
2022-08-07T03:41:16.503Z,99.90
2022-08-07T03:46:18.191Z,99.90
2022-08-07T03:51:21.626Z,99.90
2022-08-07T03:56:34.755Z,99.90
2022-08-07T04:01:38.427Z,99.90
2022-08-07T04:06:41.744Z,99.90
2022-08-07T04:12:24.403Z,99.90
2022-08-07T04:17:21.314Z,99.90
2022-08-07T04:22:29.050Z,99.90
2022-08-07T04:27:35.786Z,99.90
2022-08-07T04:32:44.856Z,99.90
2022-08-07T04:38:02.778Z,99.90
2022-08-07T04:43:04.394Z,99.90
2022-08-07T04:48:17.399Z,99.90
2022-08-07T04:53:40.251Z,99.90
2022-08-07T04:59:18.476Z,99.90
2022-08-07T05:04:17.463Z,99.90
2022-08-07T05:09:42.940Z,99.90
2022-08-07T05:14:53.621Z,99.90
2022-08-07T05:19:58.364Z,99.90
2022-08-07T05:24:59.644Z,99.90
2022-08-07T05:30:01.859Z,99.90
2022-08-07T05:35:02.441Z,99.90
2022-08-07T05:40:06.374Z,99.90
2022-08-07T05:45:46.035Z,99.90
2022-08-07T05:50:39.626Z,99.90
2022-08-07T05:56:02.283Z,99.90
2022-08-07T06:01:05.073Z,99.90
2022-08-07T06:06:04.515Z,99.90
2022-08-07T06:11:08.975Z,99.90
2022-08-07T06:16:13.496Z,99.90
2022-08-07T06:22:16.971Z,99.90
2022-08-07T06:26:33.187Z,99.90
2022-08-07T06:31:47.306Z,99.90
2022-08-07T06:36:51.817Z,99.90
2022-08-07T06:42:02.305Z,99.20
2022-08-07T06:47:28.986Z,99.70
2022-08-07T06:52:53.924Z,97.30
2022-08-07T06:58:00.820Z,97.00
2022-08-07T07:03:11.014Z,97.00
2022-08-07T07:08:18.532Z,96.40
2022-08-07T07:13:55.959Z,95.30
2022-08-07T07:18:55.627Z,93.80
2022-08-07T07:24:10.324Z,93.40
2022-08-07T07:29:40.315Z,93.20
2022-08-07T07:34:35.461Z,92.00
2022-08-07T07:39:52.027Z,91.70
2022-08-07T07:44:54.969Z,90.80
2022-08-07T07:50:35.828Z,89.70
2022-08-07T07:55:15.403Z,88.80
2022-08-07T08:00:20.842Z,89.80
2022-08-07T08:05:32.230Z,87.30
2022-08-07T08:10:48.906Z,88.70
2022-08-07T08:15:59.181Z,85.80
2022-08-07T08:21:03.239Z,85.10
2022-08-07T08:26:22.035Z,83.40
2022-08-07T08:31:58.621Z,82.00
2022-08-07T08:36:49.268Z,82.40
2022-08-07T08:42:04.185Z,81.70
2022-08-07T08:47:10.072Z,80.90
2022-08-07T08:52:19.029Z,80.10
2022-08-07T08:57:30.187Z,80.10
2022-08-07T09:02:38.043Z,77.60
2022-08-07T09:07:57.596Z,75.00
2022-08-07T09:13:06.977Z,72.40
2022-08-07T09:18:23.325Z,72.80
2022-08-07T09:24:33.139Z,70.00
2022-08-07T09:30:05.875Z,64.60
2022-08-07T09:34:53.879Z,62.80
2022-08-07T09:40:06.752Z,60.90
2022-08-07T09:47:42.585Z,62.00
2022-08-07T09:50:40.448Z,63.00
2022-08-07T09:56:03.786Z,65.20
2022-08-07T10:01:50.997Z,65.40
2022-08-07T10:06:56.853Z,65.80
2022-08-07T10:12:18.116Z,67.30
2022-08-07T10:18:00.857Z,65.70
2022-08-07T10:24:06.658Z,67.00
2022-08-07T10:28:59.895Z,62.90
2022-08-07T10:34:15.309Z,58.10
2022-08-07T10:39:41.500Z,59.60
2022-08-07T10:45:09.725Z,56.70
2022-08-07T10:50:15.034Z,55.90
2022-08-07T10:55:21.161Z,55.00
2022-08-07T11:00:56.125Z,53.50
2022-08-07T11:06:01.227Z,53.60
2022-08-07T11:11:06.970Z,51.70
2022-08-07T11:16:11.023Z,52.20
2022-08-07T11:21:14.154Z,50.60
2022-08-07T11:26:18.585Z,50.60
2022-08-07T11:31:35.107Z,51.30
2022-08-07T11:36:44.715Z,51.60
2022-08-07T11:42:01.688Z,52.40
2022-08-07T11:47:15.203Z,52.40
2022-08-07T11:52:38.677Z,51.40
2022-08-07T11:58:00.670Z,52.00
2022-08-07T12:03:44.618Z,51.70
2022-08-07T12:08:52.479Z,52.30
2022-08-07T12:13:57.000Z,53.40
2022-08-07T12:19:06.272Z,53.50
2022-08-07T12:24:12.321Z,54.30
2022-08-07T12:29:38.401Z,53.50
2022-08-07T12:34:42.116Z,53.80
2022-08-07T12:39:51.033Z,54.50
2022-08-07T12:44:51.390Z,54.70
2022-08-07T12:50:04.856Z,53.70
2022-08-07T12:55:24.821Z,52.20
2022-08-07T13:00:51.460Z,52.00
2022-08-07T13:06:21.588Z,50.90
2022-08-07T13:12:03.370Z,50.10
2022-08-07T13:17:03.510Z,48.80
2022-08-07T13:22:19.834Z,48.90
2022-08-07T13:28:05.648Z,48.90
2022-08-07T13:32:55.062Z,48.60
2022-08-07T13:38:01.677Z,47.70
2022-08-07T13:43:06.381Z,48.80
2022-08-07T13:48:27.846Z,48.80
2022-08-07T13:53:59.669Z,47.60
2022-08-07T13:59:01.821Z,47.90
2022-08-07T14:04:11.808Z,46.50
2022-08-07T14:10:02.889Z,47.10
2022-08-07T14:14:42.680Z,47.70
2022-08-07T14:20:40.525Z,47.10
2022-08-07T14:25:16.928Z,46.80
2022-08-07T14:30:16.559Z,46.40
2022-08-07T14:35:44.938Z,45.20
2022-08-07T14:40:49.470Z,46.30
2022-08-07T14:45:51.129Z,46.90
2022-08-07T14:50:56.134Z,47.30
2022-08-07T14:56:01.007Z,47.30
2022-08-07T15:01:21.814Z,47.20
2022-08-07T15:06:25.097Z,47.00
2022-08-07T15:13:06.461Z,46.40
2022-08-07T15:27:29.811Z,45.50
2022-08-07T15:38:17.583Z,46.60
2022-08-07T15:49:11.802Z,45.50
2022-08-07T15:54:04.374Z,45.50
2022-08-07T15:59:16.633Z,45.10
2022-08-07T16:04:16.307Z,45.40
2022-08-07T16:09:22.851Z,45.30
2022-08-07T16:14:35.503Z,45.80
2022-08-07T16:19:59.795Z,46.60
2022-08-07T16:25:07.681Z,47.20
2022-08-07T16:30:31.813Z,47.00
2022-08-07T16:35:59.446Z,47.00
2022-08-07T16:41:22.225Z,46.80
2022-08-07T16:47:14.050Z,45.90
2022-08-07T16:52:51.494Z,45.60
2022-08-07T16:58:03.511Z,46.60
2022-08-07T17:03:58.175Z,46.40
2022-08-07T17:09:09.567Z,47.00
2022-08-07T17:14:18.925Z,46.20
2022-08-07T17:20:01.914Z,46.70
2022-08-07T17:25:04.927Z,46.20
2022-08-07T17:30:15.524Z,46.60
2022-08-07T17:35:49.837Z,46.30
2022-08-07T17:40:50.404Z,46.70
2022-08-07T17:45:55.732Z,46.80
2022-08-07T17:51:01.726Z,47.00
2022-08-07T17:56:06.626Z,46.90
2022-08-07T18:01:20.893Z,47.70
2022-08-07T18:06:37.146Z,48.50
2022-08-07T18:12:17.439Z,49.00
2022-08-07T18:17:10.759Z,49.80
2022-08-07T18:22:26.356Z,50.20
2022-08-07T18:27:39.169Z,50.20
2022-08-07T18:33:11.040Z,50.50
2022-08-07T18:38:56.079Z,50.40
2022-08-07T18:43:57.317Z,50.80
2022-08-07T18:50:19.230Z,50.90
2022-08-07T18:54:31.639Z,51.20
2022-08-07T18:59:48.057Z,51.50
2022-08-07T19:05:15.575Z,51.30
2022-08-07T19:10:21.894Z,51.50
2022-08-07T19:16:03.332Z,52.00
2022-08-07T19:21:00.076Z,52.20
2022-08-07T19:26:23.696Z,52.30
2022-08-07T19:31:58.606Z,53.00
2022-08-07T19:36:53.649Z,52.90
2022-08-07T19:42:24.735Z,53.40
2022-08-07T19:47:28.247Z,53.80
2022-08-07T19:52:35.441Z,53.20
2022-08-07T19:58:02.865Z,53.30
2022-08-07T20:03:04.379Z,53.90
2022-08-07T20:08:07.139Z,54.40
2022-08-07T20:13:23.058Z,54.90
2022-08-07T20:18:33.692Z,54.70
2022-08-07T20:23:42.984Z,55.30
2022-08-07T20:28:51.603Z,55.60
2022-08-07T20:33:57.356Z,55.80
2022-08-07T20:38:59.515Z,56.00
2022-08-07T20:44:03.956Z,55.70
2022-08-07T20:49:59.192Z,56.20
2022-08-07T20:54:30.138Z,56.80
2022-08-07T21:00:06.502Z,56.60
2022-08-07T21:04:53.090Z,57.00
2022-08-07T21:09:59.250Z,57.70
2022-08-07T21:15:04.014Z,57.70
2022-08-07T21:20:06.309Z,57.70
2022-08-07T21:25:14.582Z,58.30
2022-08-07T21:30:17.542Z,58.30
2022-08-07T21:36:06.088Z,58.60
2022-08-07T21:40:46.769Z,59.40
2022-08-07T21:46:08.568Z,59.30
2022-08-07T21:51:20.142Z,59.00
2022-08-07T21:56:36.031Z,59.40
2022-08-07T22:02:10.769Z,59.80
2022-08-07T22:07:06.880Z,59.80
2022-08-07T22:12:15.328Z,60.00
2022-08-07T22:17:20.357Z,60.80
2022-08-07T22:22:28.589Z,61.00
2022-08-07T22:28:02.814Z,61.10
2022-08-07T22:33:03.566Z,61.10
2022-08-07T22:38:11.467Z,61.10
2022-08-07T22:43:11.962Z,61.70
2022-08-07T22:48:54.527Z,62.20
2022-08-07T22:54:07.982Z,62.60
2022-08-07T22:59:49.808Z,62.50
2022-08-07T23:06:10.187Z,62.90
2022-08-07T23:10:41.938Z,62.50
2022-08-07T23:16:05.824Z,63.50
2022-08-07T23:21:29.949Z,64.70
2022-08-07T23:26:38.368Z,63.40
2022-08-07T23:34:20.125Z,64.30
2022-08-07T23:37:22.496Z,63.80
2022-08-07T23:42:48.043Z,63.90
2022-08-07T23:48:04.363Z,64.00
2022-08-07T23:53:16.759Z,64.90
2022-08-07T23:58:26.114Z,65.20
